ADDS METAR Data INFO
IDs: Format: Raw Decoded Include TAF

Data at: 0347 UTC 17 Oct 2017

KBYY 170335Z AUTO 00000KT 10SM CLR 15/10 A3023 RMK AO2 T01480097
KBYY 170315Z AUTO 00000KT 10SM CLR 14/10 A3022 RMK AO2 T01470098
KBYY 170255Z AUTO 01003KT 10SM CLR 15/10 A3022 RMK AO2 T01570098
KBYY 170235Z AUTO 01004KT 10SM CLR 14/10 A3022 RMK AO2 T01450102
KBYY 170215Z AUTO 00000KT 10SM CLR 15/10 A3022 RMK AO2 T01610096
KBYY 170155Z AUTO 00000KT 10SM CLR 16/09 A3022 RMK AO2 T01670095
KBYY 170135Z AUTO 01004KT 10SM CLR 17/09 A3021 RMK AO2 T01670095
KBYY 170115Z AUTO 36003KT 10SM CLR 16/09 A3020 RMK AO2 T01720092
KBYY 170055Z AUTO 35003KT 10SM CLR 18/08 A3020 RMK AO2 T01930089
KBYY 170035Z AUTO 34003KT 10SM CLR 20/08 A3019 RMK AO2 T01960086
KBYY 170015Z AUTO 36004KT 10SM CLR 20/08 A3019 RMK AO2 T02000085
KBYY 162355Z AUTO 36005KT 10SM CLR 20/08 A3018 RMK AO2 T02160081
KBYY 162335Z AUTO 36007KT 10SM CLR 22/07 A3017 RMK AO2 T02350072
KBYY 162315Z AUTO 36008KT 10SM CLR 23/07 A3016 RMK AO2 T02440070
KBYY 162255Z AUTO 02009G15KT 10SM CLR 25/06 A3016 RMK AO2 T02490068
KBYY 162235Z AUTO 36008G15KT 10SM CLR 25/06 A3016 RMK AO2 T02540069
KBYY 162215Z AUTO 35011G16KT 10SM CLR 25/06 A3015 RMK AO2 T02560067
KBYY 162155Z AUTO 02010G15KT 10SM CLR 26/06 A3015 RMK AO2 T02570066
KBYY 162135Z AUTO 01010G14KT 10SM CLR 26/06 A3015 RMK AO2 T02600063
KBYY 162115Z AUTO 34011G18KT 10SM CLR 26/06 A3015 RMK AO2 T02620060
KBYY 162055Z AUTO 01011G19KT 330V030 10SM CLR 26/05 A3015 RMK AO2 T02630046
KBYY 162035Z AUTO 36013G20KT 10SM CLR 26/04 A3015 RMK AO2 T02650045
KBYY 162015Z AUTO 02013G21KT 10SM CLR 26/03 A3015 RMK AO2 T02670047
KBYY 161955Z AUTO 01014G19KT 10SM CLR 26/04 A3016 RMK AO2 T02650046
KBYY 161935Z AUTO 01010G20KT 10SM CLR 26/03 A3016 RMK AO2 T02640041
KBYY 161915Z AUTO 36016G19KT 10SM CLR 26/04 A3017 RMK AO2 T02610046
KBYY 161855Z AUTO 01012G19KT 10SM CLR 26/05 A3018 RMK AO2 T02600056
KBYY 161835Z AUTO 01010G19KT 10SM CLR 25/05 A3019 RMK AO2 T02540063
KBYY 161815Z AUTO 36014G18KT 10SM CLR 25/07 A3021 RMK AO2 T02510073
KBYY 161755Z AUTO 01014G23KT 10SM CLR 25/07 A3022 RMK AO2 T02480078
KBYY 161735Z AUTO 04010G19KT 10SM CLR 25/07 A3023 RMK AO2 T02460083
KBYY 161715Z AUTO 01012G19KT 10SM CLR 23/08 A3024 RMK AO2 T02390086
KBYY 161655Z AUTO 01011G15KT 10SM CLR 23/08 A3025 RMK AO2 T02330089
KBYY 161635Z AUTO 03012G19KT 10SM CLR 22/08 A3025 RMK AO2 T02250088
KBYY 161615Z AUTO 02013G21KT 10SM CLR 22/08 A3025 RMK AO2 T02180089
KBYY 161555Z AUTO 01018G23KT 10SM CLR 21/08 A3025 RMK AO2 T02130090
KBYY 161535Z AUTO 01017G23KT 10SM CLR 21/09 A3024 RMK AO2 T02080094
KBYY 161515Z AUTO 02011G16KT 10SM CLR 20/10 A3025 RMK AO2 T01980100
KBYY 161455Z AUTO 02012G17KT 10SM CLR 19/10 A3025 RMK AO2 T01900097
KBYY 161435Z AUTO 01011G19KT 10SM SCT065 18/10 A3025 RMK AO2 T01840099
KBYY 161415Z AUTO 01012G19KT 10SM SCT065 18/10 A3024 RMK AO2 T01830100
KBYY 161355Z AUTO 36012G17KT 10SM SCT065 18/10 A3024 RMK AO2 T01770100
KBYY 161335Z AUTO 36009KT 10SM SCT065 SCT085 17/10 A3023 RMK AO2 T01750099
KBYY 161315Z AUTO 01009KT 10SM SCT065 BKN085 BKN120 17/10 A3023 RMK AO2 T01720099
KBYY 161255Z AUTO 36008KT 10SM SCT065 BKN085 17/10 A3022 RMK AO2 T01700100
KBYY 161235Z AUTO 36008KT 10SM BKN085 17/10 A3022 RMK AO2 T01700100
KBYY 161215Z AUTO 36007KT 10SM SCT085 17/10 A3021 RMK AO2 T01710100
KBYY 161155Z AUTO 36007KT 10SM CLR 17/10 A3019 RMK AO2 T01740101
KBYY 161135Z AUTO 35008KT 10SM SCT080 17/10 A3019 RMK AO2 T01780101
KBYY 161115Z AUTO 36010KT 10SM CLR 18/10 A3018 RMK AO2 T01820101
KBYY 161055Z AUTO 36009G17KT 10SM SCT090 18/10 A3017 RMK AO2 T01870102
KBYY 161035Z AUTO 36008KT 10SM OVC080 19/10 A3016 RMK AO2 T01950101
KBYY 161015Z AUTO 36007G15KT 10SM OVC080 20/10 A3016 RMK AO2 T02010098
KBYY 160955Z AUTO 36009KT 10SM OVC080 20/10 A3016 RMK AO2 T02040101
KBYY 160935Z AUTO 36007KT 10SM OVC080 20/10 A3016 RMK AO2 T02020107
KBYY 160915Z AUTO 35005KT 10SM OVC080 20/11 A3015 RMK AO2 T02000108
KBYY 160855Z AUTO 36006KT 10SM BKN080 20/11 A3016 RMK AO2 T01960109
KBYY 160835Z AUTO 36006KT 10SM CLR 19/11 A3016 RMK AO2 T01960110
KBYY 160815Z AUTO 36007KT 10SM CLR 20/11 A3016 RMK AO2 T01980111
KBYY 160755Z AUTO 36008KT 10SM CLR 20/11 A3016 RMK AO2 T02010112
KBYY 160735Z AUTO 01010KT 10SM CLR 20/11 A3016 RMK AO2 T02030113
KBYY 160715Z AUTO 36008KT 10SM CLR 20/11 A3016 RMK AO2 T02050115
KBYY 160655Z AUTO 36010G14KT 10SM CLR 20/11 A3016 RMK AO2 T02060116
KBYY 160635Z AUTO 36007KT 10SM CLR 21/11 A3016 RMK AO2 T02090118
KBYY 160615Z AUTO 36008KT 10SM CLR 21/12 A3016 RMK AO2 T02120122
KBYY 160555Z AUTO 35010KT 10SM CLR 21/12 A3016 RMK AO2 T02140128
KBYY 160535Z AUTO 36009KT 10SM CLR 21/13 A3016 RMK AO2 T02170134
KBYY 160515Z AUTO 36009KT 10SM CLR 21/13 A3017 RMK AO2 T02200142
KBYY 160455Z AUTO 01009G14KT 10SM CLR 22/14 A3016 RMK AO2 T02200148
KBYY 160435Z AUTO 36009KT 10SM CLR 22/15 A3016 RMK AO2 T02220150
KBYY 160415Z AUTO 36010KT 10SM CLR 22/15 A3016 RMK AO2 T02250153
KBYY 160355Z AUTO 36012G16KT 10SM SCT085 22/15 A3016 RMK AO2 T02260156
KBYY 160335Z AUTO 01011G17KT 10SM BKN085 22/15 A3016 RMK AO2 T02280157
KBYY 160315Z AUTO 36012G17KT 10SM OVC085 22/16 A3016 RMK AO2 T02290160
KBYY 160255Z AUTO 01010G17KT 10SM BKN085 22/16 A3016 RMK AO2 T02290161
KBYY 160235Z AUTO 01011G18KT 10SM SCT085 22/16 A3015 RMK AO2 T02270164
KBYY 160215Z AUTO 01014G19KT 10SM CLR 22/16 A3015 RMK AO2 T02290169
KBYY 160155Z AUTO 36015G21KT 10SM CLR 22/17 A3014 RMK AO2 T02320174
KBYY 160135Z AUTO 36014G18KT 10SM CLR 23/17 A3014 RMK AO2 T02350178
KBYY 160115Z AUTO 36011G15KT 10SM CLR 23/18 A3013 RMK AO2 T02370182
KBYY 160055Z AUTO 35012G16KT 10SM CLR 23/18 A3011 RMK AO2 T02390183
KBYY 160035Z AUTO 35009G19KT 10SM CLR 24/18 A3011 RMK AO2 T02430186
KBYY 160015Z AUTO 35015G20KT 10SM CLR 24/18 A3009 RMK AO2 T02470190
KBYY 152355Z AUTO 35012KT 10SM CLR 25/19 A3008 RMK AO2 T02550196
KBYY 152335Z AUTO 01013G18KT 10SM CLR 26/20 A3008 RMK AO2 T02630201
KBYY 152315Z AUTO 35012G18KT 10SM CLR 26/20 A3007 RMK AO2 T02740207
KBYY 152255Z AUTO 34010G15KT 10SM CLR 27/21 A3007 RMK AO2 T02820211
KBYY 152235Z AUTO 33012G17KT 10SM CLR 28/21 A3006 RMK AO2 T02860212
KBYY 152215Z AUTO 33014G18KT 10SM CLR 28/21 A3005 RMK AO2 T02910217
KBYY 152155Z AUTO 33014G20KT 10SM SCT046 SCT060 29/22 A3004 RMK AO2 T03060215
KBYY 152135Z AUTO 36013G18KT 10SM SCT046 BKN060 32/20 A3003 RMK AO2 T03200206
KBYY 152115Z AUTO 36011G17KT 10SM SCT050 31/20 A3002 RMK AO2 T03220201
KBYY 152055Z AUTO 01009G20KT 10SM SCT050 32/20 A3002 RMK AO2 T03300195
KBYY 152035Z AUTO 35011G16KT 10SM CLR 32/19 A3003 RMK AO2 T03290191
KBYY 152015Z AUTO 35010G16KT 10SM CLR 32/18 A3004 RMK AO2 T03280194
KBYY 151955Z AUTO 34009G15KT 320V020 10SM SCT041 32/18 A3004 RMK AO2 T03270204
KBYY 151935Z AUTO 34009G14KT 300V360 10SM SCT041 32/21 A3004 RMK AO2 T03260210
KBYY 151915Z AUTO 36009KT 10SM CLR 32/21 A3004 RMK AO2 T03240205
KBYY 151855Z AUTO 35006KT 10SM CLR 32/20 A3005 RMK AO2 T03210200
KBYY 151835Z AUTO 35010G18KT 10SM CLR 32/20 A3006 RMK AO2 T03220201
KBYY 151815Z AUTO 33010G15KT 10SM CLR 32/20 A3007 RMK AO2 T03200201
KBYY 151755Z AUTO 35010G15KT 10SM CLR 32/19 A3008 RMK AO2 T03190193
KBYY 151735Z AUTO 02008KT 10SM CLR 31/19 A3009 RMK AO2 T03130199
KBYY 151715Z AUTO 01006KT 10SM CLR 31/20 A3010 RMK AO2 T03080201
KBYY 151655Z AUTO 02005KT 10SM CLR 30/20 A3010 RMK AO2 T03060204
KBYY 151635Z AUTO 36007KT 10SM CLR 30/21 A3011 RMK AO2 T03030209
KBYY 151615Z AUTO 36008KT 10SM CLR 30/22 A3011 RMK AO2 T02990216
KBYY 151555Z AUTO 36007KT 10SM CLR 29/21 A3011 RMK AO2 T02910222